LDOB weather

CLOSED Vukovar Borovo N Airport
Vukovar, Vukovar-Srijem County, Croatia

Public forecast

Using degrees Celsius for public forecast. Weather courtesy of forecast.io.

METAR (pilot weather report)

Closest report is Osijek Airport, 7.9 nm (14.6 km) NW. Retrieved 2019/06/25 10:30 UTC (22 minutes ago):

LDOS 251030Z 04005KT 350V100 9999 SCT033 27/20 Q1023

TAF (pilot weather forecast)

Closest forecast is Osijek Airport, 7.9 nm (14.6 km) NW. Retrieved 2019/06/25 06:00 UTC (5 hours ago):

TAF LDOS 250525Z 2506/2606 32005KT 9999 FEW035 TX29/2513Z TN17/2603Z PROB40 TEMPO 2510/2512 SHRA FEW035TCU PROB40 TEMPO 2512/2519 06015G25KT TSRA FEW035CB BKN040 PROB30 2603/2606 0500 FG